AIC623 VOMM-RJTT
Flight info
| Callsign | AIC623 |
|---|---|
| Flight time | N/A |
| Altitude | 33000 |
| Route | KOLCA DCT DOKET A465 LEGOS/N0496F350 A465 CEA L507 BGO G473 PSL W26 CMP G473 UBL B202 BOMPA/K0922F350 B202 PLK G474 PCA L628 MESOX/N0497F350 L628 ARESI/N0495F360 L625 MEVIN/N0488F370 B462 KAZIK Y59 AZAMA Y57 TASOT Y81 MOE/N0483F380 V18 XAC |
| Aircraft | B77W/H-SDE1E2E3FGHIJ2J3J4J5M1RWXY/LB1D1 |
Departure
| Time | 2026-04-26 05:36 |
|---|---|
| Airport | Chennai International Airport (VOMM) |
Arrival
| Time | N/A |
|---|---|
| Airport | Tokyo Haneda International Airport (RJTT) |
| Time | Latitude | Longitude | Altitude | Speed | Heading |
|---|---|---|---|---|---|
| 2026-04-26 05:07 | 12.98393 | 80.15987 | 63 ft | 0 kts | 341° |
| 2026-04-26 05:24 | 12.98395 | 80.15986 | 63 ft | 2 kts | 341° |
| 2026-04-26 05:24 | 12.98347 | 80.16003 | 54 ft | 9 kts | 349° |
| 2026-04-26 05:25 | 12.98317 | 80.15996 | 54 ft | 5 kts | 52° |
| 2026-04-26 05:25 | 12.98310 | 80.15989 | 54 ft | 0 kts | 69° |
| 2026-04-26 05:27 | 12.98312 | 80.15992 | 54 ft | 2 kts | 69° |
| 2026-04-26 05:27 | 12.98323 | 80.16022 | 55 ft | 7 kts | 70° |
| 2026-04-26 05:28 | 12.98344 | 80.16085 | 56 ft | 12 kts | 70° |
| 2026-04-26 05:28 | 12.98375 | 80.16176 | 59 ft | 16 kts | 71° |
| 2026-04-26 05:28 | 12.98389 | 80.16217 | 57 ft | 0 kts | 71° |
| 2026-04-26 05:28 | 12.98390 | 80.16221 | 56 ft | 0 kts | 71° |
| 2026-04-26 05:29 | 12.98381 | 80.16192 | 59 ft | 11 kts | 71° |
| 2026-04-26 05:29 | 12.98361 | 80.16134 | 57 ft | 0 kts | 71° |
| 2026-04-26 05:29 | 12.98362 | 80.16135 | 57 ft | 0 kts | 68° |
| 2026-04-26 05:30 | 12.98369 | 80.16140 | 55 ft | 3 kts | 44° |
| 2026-04-26 05:30 | 12.98408 | 80.16152 | 56 ft | 9 kts | 3° |
| 2026-04-26 05:30 | 12.98499 | 80.16141 | 59 ft | 15 kts | 10° |
| 2026-04-26 05:30 | 12.98561 | 80.16229 | 57 ft | 18 kts | 75° |
| 2026-04-26 05:31 | 12.98606 | 80.16375 | 58 ft | 25 kts | 69° |
| 2026-04-26 05:31 | 12.98681 | 80.16574 | 59 ft | 34 kts | 69° |
| 2026-04-26 05:31 | 12.98777 | 80.16792 | 60 ft | 32 kts | 66° |
| 2026-04-26 05:31 | 12.98854 | 80.16990 | 58 ft | 29 kts | 69° |
| 2026-04-26 05:32 | 12.98921 | 80.17168 | 59 ft | 25 kts | 68° |
| 2026-04-26 05:32 | 12.98990 | 80.17319 | 59 ft | 22 kts | 66° |
| 2026-04-26 05:32 | 12.99052 | 80.17481 | 61 ft | 27 kts | 69° |
| 2026-04-26 05:32 | 12.99120 | 80.17656 | 65 ft | 12 kts | 58° |
| 2026-04-26 05:33 | 12.99183 | 80.17710 | 62 ft | 14 kts | 42° |
| 2026-04-26 05:33 | 12.99236 | 80.17802 | 61 ft | 17 kts | 68° |
| 2026-04-26 05:33 | 12.99286 | 80.17931 | 60 ft | 22 kts | 68° |
| 2026-04-26 05:33 | 12.99347 | 80.18092 | 64 ft | 26 kts | 72° |
| 2026-04-26 05:34 | 12.99379 | 80.18254 | 67 ft | 17 kts | 65° |
| 2026-04-26 05:34 | 12.99421 | 80.18308 | 61 ft | 8 kts | 44° |
| 2026-04-26 05:34 | 12.99442 | 80.18329 | 65 ft | 3 kts | 44° |
| 2026-04-26 05:34 | 12.99490 | 80.18376 | 63 ft | 16 kts | 44° |
| 2026-04-26 05:35 | 12.99545 | 80.18398 | 68 ft | 6 kts | 348° |
| 2026-04-26 05:35 | 12.99559 | 80.18382 | 68 ft | 2 kts | 295° |
| 2026-04-26 05:35 | 12.99552 | 80.18333 | 63 ft | 15 kts | 253° |
| 2026-04-26 05:35 | 12.99428 | 80.17999 | 66 ft | 85 kts | 248° |
| 2026-04-26 05:36 | 12.99124 | 80.17206 | 61 ft | 152 kts | 248° |
| 2026-04-26 05:36 | 12.98642 | 80.16017 | 89 ft | 213 kts | 246° |
| 2026-04-26 05:36 | 12.98055 | 80.14402 | 262 ft | 265 kts | 253° |
| 2026-04-26 05:36 | 12.97890 | 80.12433 | 1077 ft | 295 kts | 277° |
| 2026-04-26 05:37 | 12.98612 | 80.10309 | 1798 ft | 339 kts | 296° |
| 2026-04-26 05:37 | 13.00074 | 80.08117 | 1700 ft | 406 kts | 308° |
| 2026-04-26 05:37 | 13.02046 | 80.05967 | 1669 ft | 409 kts | 318° |
| 2026-04-26 05:37 | 13.04325 | 80.04321 | 1653 ft | 394 kts | 330° |
| 2026-04-26 05:38 | 13.06786 | 80.03173 | 1183 ft | 389 kts | 339° |
| 2026-04-26 05:38 | 13.09340 | 80.02288 | 1271 ft | 370 kts | 340° |
| 2026-04-26 05:38 | 13.11625 | 80.01698 | 2620 ft | 306 kts | 357° |
| 2026-04-26 05:38 | 13.13523 | 80.01883 | 3569 ft | 270 kts | 12° |
| 2026-04-26 05:39 | 13.15491 | 80.02202 | 2727 ft | 302 kts | 11° |
| 2026-04-26 05:39 | 13.17577 | 80.02715 | 2487 ft | 302 kts | 16° |
| 2026-04-26 05:39 | 13.19502 | 80.03283 | 2908 ft | 275 kts | 17° |
| 2026-04-26 05:39 | 13.21302 | 80.03858 | 3315 ft | 273 kts | 23° |
| 2026-04-26 05:40 | 13.23047 | 80.04731 | 3712 ft | 285 kts | 34° |
| 2026-04-26 05:40 | 13.24671 | 80.05886 | 4676 ft | 275 kts | 39° |
| 2026-04-26 05:40 | 13.26107 | 80.06986 | 5859 ft | 254 kts | 39° |
| 2026-04-26 05:40 | 13.27570 | 80.08154 | 6310 ft | 281 kts | 42° |
| 2026-04-26 05:41 | 13.29005 | 80.09655 | 6334 ft | 306 kts | 52° |
| 2026-04-26 05:41 | 13.30230 | 80.11483 | 6400 ft | 315 kts | 62° |
| 2026-04-26 05:41 | 13.31153 | 80.13508 | 6432 ft | 311 kts | 71° |
| 2026-04-26 05:41 | 13.31723 | 80.15607 | 6437 ft | 299 kts | 80° |
| 2026-04-26 05:42 | 13.31927 | 80.17688 | 6424 ft | 289 kts | 90° |
| 2026-04-26 05:42 | 13.31770 | 80.19712 | 6385 ft | 280 kts | 100° |
| 2026-04-26 05:42 | 13.31307 | 80.21632 | 6308 ft | 274 kts | 105° |
| 2026-04-26 05:42 | 13.30779 | 80.23485 | 6167 ft | 268 kts | 106° |
| 2026-04-26 05:43 | 13.30261 | 80.25303 | 6013 ft | 263 kts | 103° |
| 2026-04-26 05:43 | 13.29967 | 80.27136 | 5688 ft | 266 kts | 93° |
| 2026-04-26 05:43 | 13.30023 | 80.29056 | 5276 ft | 272 kts | 83° |
| 2026-04-26 05:43 | 13.30438 | 80.30950 | 5023 ft | 273 kts | 74° |
| 2026-04-26 05:44 | 13.31067 | 80.32762 | 4969 ft | 264 kts | 71° |
| 2026-04-26 05:44 | 13.31773 | 80.34599 | 5147 ft | 291 kts | 70° |
| 2026-04-26 05:44 | 13.32579 | 80.36505 | 6313 ft | 289 kts | 63° |
| 2026-04-26 05:44 | 13.33608 | 80.38313 | 7224 ft | 303 kts | 58° |
| 2026-04-26 05:45 | 13.34899 | 80.40148 | 7658 ft | 330 kts | 50° |
| 2026-04-26 05:45 | 13.36479 | 80.41874 | 8127 ft | 338 kts | 47° |
| 2026-04-26 05:45 | 13.38106 | 80.43617 | 8569 ft | 337 kts | 47° |
| 2026-04-26 05:45 | 13.39724 | 80.45353 | 9003 ft | 336 kts | 49° |
| 2026-04-26 05:46 | 13.41245 | 80.47176 | 9436 ft | 337 kts | 52° |
| 2026-04-26 05:46 | 13.42700 | 80.49066 | 9882 ft | 338 kts | 53° |
| 2026-04-26 05:46 | 13.44134 | 80.50987 | 10288 ft | 339 kts | 53° |
| 2026-04-26 05:46 | 13.45558 | 80.52947 | 10551 ft | 346 kts | 54° |
| 2026-04-26 05:47 | 13.46969 | 80.54957 | 10660 ft | 346 kts | 55° |
| 2026-04-26 05:47 | 13.48446 | 80.56902 | 10714 ft | 345 kts | 49° |
| 2026-04-26 05:47 | 13.50163 | 80.58631 | 10739 ft | 345 kts | 41° |
| 2026-04-26 05:47 | 13.52102 | 80.60086 | 10760 ft | 346 kts | 34° |
| 2026-04-26 05:48 | 13.54094 | 80.61419 | 10768 ft | 346 kts | 36° |
| 2026-04-26 05:48 | 13.56012 | 80.62906 | 10770 ft | 345 kts | 39° |
| 2026-04-26 05:48 | 13.57943 | 80.64365 | 10774 ft | 345 kts | 37° |
| 2026-04-26 05:48 | 13.59898 | 80.65803 | 10774 ft | 345 kts | 37° |
| 2026-04-26 05:49 | 13.61856 | 80.67214 | 10760 ft | 340 kts | 37° |
| 2026-04-26 05:49 | 13.65525 | 80.70036 | 10703 ft | 318 kts | 39° |
| 2026-04-26 05:49 | 13.67267 | 80.71381 | 10658 ft | 307 kts | 38° |
| 2026-04-26 05:50 | 13.68953 | 80.72672 | 10592 ft | 298 kts | 38° |
| 2026-04-26 05:50 | 13.70595 | 80.73929 | 10493 ft | 289 kts | 38° |
| 2026-04-26 05:50 | 13.72169 | 80.75138 | 10386 ft | 282 kts | 38° |
| 2026-04-26 05:50 | 13.73742 | 80.76347 | 10221 ft | 276 kts | 38° |
| 2026-04-26 05:51 | 13.75263 | 80.77516 | 9918 ft | 277 kts | 38° |
| 2026-04-26 05:51 | 13.76814 | 80.78707 | 9559 ft | 278 kts | 39° |
| 2026-04-26 05:51 | 13.78363 | 80.79897 | 9256 ft | 277 kts | 38° |
| 2026-04-26 05:51 | 13.79915 | 80.81090 | 9022 ft | 279 kts | 38° |
| 2026-04-26 05:52 | 13.81482 | 80.82292 | 9008 ft | 283 kts | 38° |
| 2026-04-26 05:52 | 13.83062 | 80.83506 | 9471 ft | 281 kts | 38° |
| 2026-04-26 05:52 | 13.84604 | 80.84689 | 10384 ft | 272 kts | 38° |
| 2026-04-26 05:52 | 13.86115 | 80.85856 | 11314 ft | 275 kts | 38° |
| 2026-04-26 05:53 | 13.87668 | 80.87052 | 12210 ft | 282 kts | 38° |
| 2026-04-26 05:53 | 13.89238 | 80.88257 | 13296 ft | 283 kts | 38° |
| 2026-04-26 05:53 | 13.90818 | 80.89468 | 14149 ft | 290 kts | 38° |
| 2026-04-26 05:53 | 13.92470 | 80.90738 | 15027 ft | 295 kts | 38° |
| 2026-04-26 05:54 | 13.94131 | 80.92018 | 15861 ft | 301 kts | 38° |
| 2026-04-26 05:54 | 13.95823 | 80.93322 | 16735 ft | 306 kts | 38° |
| 2026-04-26 05:54 | 13.97523 | 80.94630 | 17571 ft | 311 kts | 38° |
| 2026-04-26 05:54 | 13.99273 | 80.95976 | 18372 ft | 318 kts | 38° |
| 2026-04-26 05:55 | 14.01068 | 80.97359 | 18975 ft | 327 kts | 38° |
| 2026-04-26 05:55 | 14.02868 | 80.98745 | 19478 ft | 318 kts | 38° |
| 2026-04-26 05:55 | 14.04667 | 81.00132 | 19537 ft | 330 kts | 38° |
| 2026-04-26 05:55 | 14.05922 | 81.01100 | 19452 ft | 335 kts | 37° |
| 2026-04-26 05:56 | 14.07764 | 81.02517 | 19302 ft | 334 kts | 38° |
| 2026-04-26 05:56 | 14.09618 | 81.03945 | 19063 ft | 331 kts | 38° |
| 2026-04-26 05:56 | 14.11460 | 81.05367 | 18736 ft | 330 kts | 38° |
| 2026-04-26 05:56 | 14.13310 | 81.06791 | 18346 ft | 332 kts | 37° |
| 2026-04-26 05:57 | 14.15176 | 81.08214 | 18062 ft | 332 kts | 37° |
| 2026-04-26 05:57 | 14.17021 | 81.09596 | 17877 ft | 324 kts | 37° |
| 2026-04-26 05:57 | 14.18846 | 81.10941 | 17630 ft | 319 kts | 37° |
| 2026-04-26 05:57 | 14.20569 | 81.12352 | 17198 ft | 323 kts | 41° |
| 2026-04-26 05:58 | 14.22332 | 81.13845 | 16949 ft | 331 kts | 37° |
| 2026-04-26 05:58 | 14.24206 | 81.15237 | 17237 ft | 330 kts | 36° |
| 2026-04-26 05:58 | 14.26027 | 81.16610 | 18083 ft | 320 kts | 38° |
| 2026-04-26 05:58 | 14.27801 | 81.17986 | 18806 ft | 322 kts | 38° |
| 2026-04-26 05:59 | 14.29619 | 81.19392 | 19313 ft | 329 kts | 37° |
| 2026-04-26 05:59 | 14.31410 | 81.20767 | 19598 ft | 319 kts | 37° |
| 2026-04-26 05:59 | 14.33229 | 81.22171 | 19357 ft | 332 kts | 37° |
| 2026-04-26 05:59 | 14.35094 | 81.23615 | 18958 ft | 335 kts | 38° |
| 2026-04-26 06:00 | 14.36964 | 81.25060 | 18604 ft | 335 kts | 38° |
| 2026-04-26 06:00 | 14.38800 | 81.26475 | 18347 ft | 332 kts | 37° |
| 2026-04-26 06:00 | 14.40643 | 81.27900 | 18132 ft | 337 kts | 38° |
| 2026-04-26 06:00 | 14.42585 | 81.29417 | 18447 ft | 357 kts | 38° |
| 2026-04-26 06:01 | 14.44553 | 81.30962 | 19418 ft | 357 kts | 38° |
| 2026-04-26 06:01 | 14.46593 | 81.32569 | 19791 ft | 382 kts | 38° |
| 2026-04-26 06:01 | 14.48790 | 81.34307 | 19877 ft | 408 kts | 38° |
| 2026-04-26 06:01 | 14.51074 | 81.36117 | 19892 ft | 417 kts | 38° |
| 2026-04-26 06:02 | 14.53373 | 81.37943 | 19879 ft | 415 kts | 38° |
| 2026-04-26 06:02 | 14.55615 | 81.39724 | 19860 ft | 411 kts | 38° |
| 2026-04-26 06:02 | 14.57879 | 81.41523 | 19857 ft | 409 kts | 38° |
| 2026-04-26 06:02 | 14.60133 | 81.43316 | 19862 ft | 410 kts | 38° |
| 2026-04-26 06:03 | 14.62402 | 81.45120 | 19871 ft | 410 kts | 38° |
| 2026-04-26 06:03 | 14.64662 | 81.46920 | 19870 ft | 410 kts | 38° |
| 2026-04-26 06:03 | 14.66923 | 81.48719 | 19870 ft | 411 kts | 38° |
| 2026-04-26 06:03 | 14.69187 | 81.50521 | 19870 ft | 411 kts | 37° |
| 2026-04-26 06:04 | 14.71491 | 81.52270 | 19875 ft | 411 kts | 36° |
| 2026-04-26 06:04 | 14.73822 | 81.53976 | 19871 ft | 411 kts | 35° |
| 2026-04-26 06:04 | 14.76160 | 81.55671 | 19871 ft | 411 kts | 36° |
| 2026-04-26 06:04 | 14.78426 | 81.57470 | 19877 ft | 411 kts | 37° |
| 2026-04-26 06:05 | 14.80724 | 81.59238 | 19877 ft | 418 kts | 37° |
| 2026-04-26 06:05 | 14.83134 | 81.61053 | 19933 ft | 450 kts | 36° |
| 2026-04-26 06:05 | 14.85754 | 81.63013 | 19947 ft | 476 kts | 36° |
| 2026-04-26 06:05 | 14.88461 | 81.65034 | 19942 ft | 482 kts | 36° |
| 2026-04-26 06:06 | 14.91184 | 81.67065 | 19895 ft | 479 kts | 36° |
| 2026-04-26 06:06 | 14.93873 | 81.69071 | 19876 ft | 476 kts | 36° |
| 2026-04-26 06:06 | 14.96488 | 81.71114 | 19856 ft | 463 kts | 40° |
| 2026-04-26 06:06 | 14.98929 | 81.73216 | 19846 ft | 448 kts | 37° |
| 2026-04-26 06:07 | 15.01406 | 81.75074 | 19844 ft | 433 kts | 37° |
| 2026-04-26 06:07 | 15.03742 | 81.76909 | 19842 ft | 419 kts | 37° |
| 2026-04-26 06:07 | 15.06033 | 81.78692 | 19844 ft | 406 kts | 37° |
| 2026-04-26 06:07 | 15.08257 | 81.80417 | 19843 ft | 393 kts | 37° |
| 2026-04-26 06:08 | 15.10411 | 81.82094 | 19846 ft | 379 kts | 36° |
| 2026-04-26 06:08 | 15.12690 | 81.83341 | 19816 ft | 366 kts | 15° |
| 2026-04-26 06:08 | 15.15124 | 81.83874 | 19865 ft | 351 kts | 8° |
| 2026-04-26 06:08 | 15.17510 | 81.84190 | 19831 ft | 341 kts | 6° |
| 2026-04-26 06:09 | 15.19861 | 81.84431 | 19673 ft | 338 kts | 5° |
| 2026-04-26 06:09 | 15.22214 | 81.84600 | 19358 ft | 340 kts | 360° |
| 2026-04-26 06:09 | 15.24588 | 81.84543 | 18901 ft | 342 kts | 358° |
| 2026-04-26 06:09 | 15.26945 | 81.84482 | 18543 ft | 343 kts | 359° |
| 2026-04-26 06:10 | 15.29331 | 81.84453 | 18383 ft | 343 kts | 359° |
| 2026-04-26 06:10 | 15.31720 | 81.84418 | 18484 ft | 343 kts | 359° |
| 2026-04-26 06:10 | 15.34110 | 81.84375 | 18939 ft | 340 kts | 359° |
| 2026-04-26 06:10 | 15.36413 | 81.84336 | 19503 ft | 319 kts | 359° |
| 2026-04-26 06:11 | 15.38673 | 81.84299 | 19554 ft | 336 kts | 359° |
| 2026-04-26 06:11 | 15.41051 | 81.84259 | 19459 ft | 343 kts | 359° |
| 2026-04-26 06:11 | 15.43423 | 81.84221 | 19405 ft | 339 kts | 359° |
| 2026-04-26 06:11 | 15.45774 | 81.84183 | 19278 ft | 337 kts | 359° |
| 2026-04-26 06:12 | 15.48120 | 81.84144 | 19017 ft | 337 kts | 359° |
| 2026-04-26 06:12 | 15.50464 | 81.84105 | 18657 ft | 337 kts | 359° |
| 2026-04-26 06:12 | 15.52821 | 81.84207 | 18218 ft | 345 kts | 14° |
| 2026-04-26 06:12 | 15.55098 | 81.85168 | 17514 ft | 368 kts | 36° |
| 2026-04-26 06:13 | 15.56952 | 81.87009 | 17561 ft | 377 kts | 51° |
| 2026-04-26 06:13 | 15.58527 | 81.89053 | 18997 ft | 330 kts | 52° |
| 2026-04-26 06:13 | 15.59834 | 81.90898 | 20044 ft | 317 kts | 57° |
| 2026-04-26 06:13 | 15.61014 | 81.92913 | 19996 ft | 345 kts | 59° |
| 2026-04-26 06:14 | 15.62266 | 81.95082 | 19727 ft | 350 kts | 58° |
| 2026-04-26 06:14 | 15.63552 | 81.97217 | 19541 ft | 344 kts | 58° |
| 2026-04-26 06:14 | 15.64808 | 81.99306 | 19292 ft | 339 kts | 58° |
| 2026-04-26 06:14 | 15.66030 | 82.01361 | 18921 ft | 340 kts | 58° |
| 2026-04-26 06:15 | 15.67274 | 82.03455 | 18512 ft | 342 kts | 58° |
| 2026-04-26 06:15 | 15.68531 | 82.05560 | 18278 ft | 344 kts | 58° |
| 2026-04-26 06:15 | 15.69794 | 82.07680 | 18373 ft | 345 kts | 58° |
| 2026-04-26 06:15 | 15.71045 | 82.09782 | 18836 ft | 340 kts | 58° |
| 2026-04-26 06:16 | 15.72259 | 82.11821 | 19422 ft | 320 kts | 58° |
| 2026-04-26 06:16 | 15.73456 | 82.13830 | 19504 ft | 338 kts | 58° |
| 2026-04-26 06:16 | 15.74712 | 82.15940 | 19427 ft | 346 kts | 58° |
| 2026-04-26 06:16 | 15.75970 | 82.18055 | 19400 ft | 342 kts | 58° |
| 2026-04-26 06:17 | 15.77218 | 82.20153 | 19292 ft | 340 kts | 58° |
| 2026-04-26 06:17 | 15.78445 | 82.22219 | 19061 ft | 340 kts | 58° |
| 2026-04-26 06:17 | 15.79701 | 82.24330 | 18716 ft | 339 kts | 58° |
| 2026-04-26 06:17 | 15.80928 | 82.26393 | 18388 ft | 343 kts | 58° |
| 2026-04-26 06:18 | 15.82191 | 82.28521 | 18247 ft | 347 kts | 58° |
| 2026-04-26 06:18 | 15.83461 | 82.30662 | 18572 ft | 345 kts | 58° |
| 2026-04-26 06:18 | 15.84699 | 82.32747 | 19248 ft | 329 kts | 58° |
| 2026-04-26 06:18 | 15.85882 | 82.34740 | 19571 ft | 330 kts | 58° |
| 2026-04-26 06:19 | 15.87125 | 82.36830 | 19555 ft | 346 kts | 58° |
| 2026-04-26 06:19 | 15.88391 | 82.38967 | 19545 ft | 345 kts | 58° |
| 2026-04-26 06:19 | 15.89649 | 82.41090 | 19509 ft | 342 kts | 58° |
| 2026-04-26 06:19 | 15.90894 | 82.43187 | 19366 ft | 342 kts | 58° |
| 2026-04-26 06:20 | 15.92127 | 82.45268 | 19099 ft | 341 kts | 58° |
| 2026-04-26 06:20 | 15.93374 | 82.47374 | 18765 ft | 340 kts | 58° |
| 2026-04-26 06:20 | 15.94615 | 82.49467 | 18426 ft | 343 kts | 58° |
| 2026-04-26 06:20 | 15.95873 | 82.51593 | 18233 ft | 347 kts | 58° |
| 2026-04-26 06:21 | 15.97140 | 82.53733 | 18463 ft | 346 kts | 58° |
| 2026-04-26 06:21 | 15.98390 | 82.55846 | 19083 ft | 337 kts | 58° |
| 2026-04-26 06:21 | 15.99579 | 82.57858 | 19531 ft | 326 kts | 58° |
| 2026-04-26 06:21 | 16.00808 | 82.59930 | 19552 ft | 346 kts | 58° |
| 2026-04-26 06:22 | 16.02057 | 82.62038 | 19548 ft | 347 kts | 58° |
| 2026-04-26 06:22 | 16.03316 | 82.64174 | 19548 ft | 343 kts | 58° |
| 2026-04-26 06:22 | 16.04563 | 82.66287 | 19443 ft | 343 kts | 58° |
| 2026-04-26 06:22 | 16.05812 | 82.68398 | 19219 ft | 343 kts | 58° |
| 2026-04-26 06:23 | 16.07061 | 82.70511 | 18915 ft | 341 kts | 58° |
| 2026-04-26 06:23 | 16.08305 | 82.72619 | 18556 ft | 342 kts | 58° |
| 2026-04-26 06:23 | 16.09553 | 82.74732 | 18277 ft | 346 kts | 58° |
| 2026-04-26 06:23 | 16.10820 | 82.76880 | 18315 ft | 349 kts | 58° |
| 2026-04-26 06:24 | 16.12085 | 82.79026 | 18796 ft | 344 kts | 58° |
| 2026-04-26 06:24 | 16.13284 | 82.81062 | 19411 ft | 324 kts | 58° |
| 2026-04-26 06:24 | 16.14490 | 82.83102 | 19569 ft | 340 kts | 57° |
| 2026-04-26 06:24 | 16.15753 | 82.85238 | 19544 ft | 349 kts | 58° |
| 2026-04-26 06:25 | 16.17013 | 82.87385 | 19546 ft | 346 kts | 58° |
| 2026-04-26 06:25 | 16.18270 | 82.89520 | 19477 ft | 345 kts | 58° |
| 2026-04-26 06:25 | 16.19526 | 82.91646 | 19305 ft | 345 kts | 58° |
| 2026-04-26 06:25 | 16.20778 | 82.93776 | 19027 ft | 344 kts | 58° |
| 2026-04-26 06:26 | 16.22015 | 82.95876 | 18688 ft | 343 kts | 58° |
| 2026-04-26 06:26 | 16.23265 | 82.98001 | 18372 ft | 346 kts | 58° |
| 2026-04-26 06:26 | 16.24502 | 83.00106 | 18269 ft | 350 kts | 58° |
| 2026-04-26 06:26 | 16.25772 | 83.02267 | 18567 ft | 348 kts | 58° |
| 2026-04-26 06:27 | 16.27023 | 83.04393 | 19217 ft | 334 kts | 58° |
| 2026-04-26 06:27 | 16.28217 | 83.06426 | 19565 ft | 334 kts | 57° |
| 2026-04-26 06:27 | 16.29465 | 83.08546 | 19562 ft | 350 kts | 57° |
| 2026-04-26 06:27 | 16.30722 | 83.10687 | 19566 ft | 349 kts | 58° |
| 2026-04-26 06:28 | 16.31982 | 83.12835 | 19545 ft | 347 kts | 57° |
| 2026-04-26 06:28 | 16.33239 | 83.14976 | 19410 ft | 346 kts | 57° |
| 2026-04-26 06:28 | 16.34499 | 83.17121 | 19172 ft | 346 kts | 58° |
| 2026-04-26 06:28 | 16.35749 | 83.19250 | 18877 ft | 345 kts | 58° |
| 2026-04-26 06:29 | 16.36997 | 83.21383 | 18519 ft | 345 kts | 58° |
| 2026-04-26 06:29 | 16.38258 | 83.23532 | 18269 ft | 350 kts | 58° |
| 2026-04-26 06:29 | 16.39532 | 83.25707 | 18345 ft | 352 kts | 58° |
| 2026-04-26 06:29 | 16.40800 | 83.27871 | 18842 ft | 347 kts | 57° |
| 2026-04-26 06:30 | 16.42016 | 83.29947 | 19459 ft | 326 kts | 57° |
| 2026-04-26 06:30 | 16.43239 | 83.32033 | 19573 ft | 350 kts | 57° |
| 2026-04-26 06:30 | 16.44549 | 83.34264 | 19842 ft | 370 kts | 57° |
| 2026-04-26 06:30 | 16.45881 | 83.36552 | 20883 ft | 361 kts | 57° |
| 2026-04-26 06:31 | 16.47156 | 83.38734 | 22236 ft | 348 kts | 57° |
| 2026-04-26 06:31 | 16.48444 | 83.40924 | 22683 ft | 365 kts | 57° |
| 2026-04-26 06:31 | 16.49804 | 83.43248 | 22941 ft | 384 kts | 57° |
| 2026-04-26 06:31 | 16.51199 | 83.45643 | 23641 ft | 386 kts | 57° |
| 2026-04-26 06:32 | 16.52573 | 83.47998 | 24646 ft | 375 kts | 57° |
| 2026-04-26 06:32 | 16.53914 | 83.50287 | 25388 ft | 378 kts | 57° |
| 2026-04-26 06:32 | 16.55319 | 83.52689 | 25547 ft | 397 kts | 57° |
| 2026-04-26 06:32 | 16.56776 | 83.55192 | 25851 ft | 410 kts | 57° |
| 2026-04-26 06:33 | 16.58254 | 83.57728 | 26637 ft | 407 kts | 57° |
| 2026-04-26 06:33 | 16.59711 | 83.60224 | 27661 ft | 398 kts | 57° |
| 2026-04-26 06:33 | 16.61166 | 83.62715 | 28163 ft | 407 kts | 58° |
| 2026-04-26 06:33 | 16.62673 | 83.65300 | 28275 ft | 425 kts | 58° |
| 2026-04-26 06:34 | 16.64236 | 83.67986 | 28622 ft | 435 kts | 57° |
| 2026-04-26 06:34 | 16.65802 | 83.70677 | 29446 ft | 432 kts | 58° |
| 2026-04-26 06:34 | 16.67327 | 83.73295 | 30348 ft | 425 kts | 58° |
| 2026-04-26 06:34 | 16.68866 | 83.75937 | 30807 ft | 430 kts | 58° |
| 2026-04-26 06:35 | 16.70444 | 83.78649 | 30916 ft | 445 kts | 58° |
| 2026-04-26 06:35 | 16.72078 | 83.81461 | 31104 ft | 457 kts | 58° |
| 2026-04-26 06:35 | 16.73723 | 83.84292 | 31606 ft | 447 kts | 58° |
| 2026-04-26 06:35 | 16.75308 | 83.87020 | 31783 ft | 438 kts | 57° |
| 2026-04-26 06:36 | 16.76904 | 83.89761 | 31447 ft | 444 kts | 58° |
| 2026-04-26 06:36 | 16.78510 | 83.92531 | 30854 ft | 448 kts | 58° |
| 2026-04-26 06:36 | 16.80126 | 83.95317 | 30253 ft | 451 kts | 58° |
| 2026-04-26 06:36 | 16.81759 | 83.98130 | 29908 ft | 454 kts | 58° |
| 2026-04-26 06:37 | 16.83389 | 84.00942 | 29975 ft | 451 kts | 58° |
| 2026-04-26 06:37 | 16.84992 | 84.03708 | 30399 ft | 444 kts | 58° |
| 2026-04-26 06:37 | 16.86581 | 84.06451 | 30964 ft | 439 kts | 58° |
| 2026-04-26 06:37 | 16.88160 | 84.09174 | 31425 ft | 433 kts | 58° |
| 2026-04-26 06:38 | 16.89699 | 84.11835 | 31333 ft | 429 kts | 57° |
| 2026-04-26 06:38 | 16.91266 | 84.14539 | 30663 ft | 440 kts | 58° |
| 2026-04-26 06:38 | 16.92868 | 84.17308 | 29839 ft | 451 kts | 58° |
| 2026-04-26 06:38 | 16.94503 | 84.20140 | 29286 ft | 457 kts | 58° |
| 2026-04-26 06:39 | 16.96146 | 84.22980 | 29499 ft | 450 kts | 58° |
| 2026-04-26 06:39 | 16.97721 | 84.25706 | 30213 ft | 437 kts | 58° |
| 2026-04-26 06:39 | 16.99279 | 84.28404 | 30790 ft | 433 kts | 57° |
| 2026-04-26 06:39 | 17.00849 | 84.31121 | 31085 ft | 441 kts | 58° |
| 2026-04-26 06:40 | 17.02457 | 84.33905 | 31307 ft | 452 kts | 58° |
| 2026-04-26 06:40 | 17.04087 | 84.36734 | 31668 ft | 447 kts | 58° |
| 2026-04-26 06:40 | 17.05671 | 84.39484 | 31789 ft | 437 kts | 57° |
| 2026-04-26 06:40 | 17.07254 | 84.42225 | 31442 ft | 444 kts | 57° |
| 2026-04-26 06:41 | 17.08834 | 84.44966 | 30838 ft | 449 kts | 58° |
| 2026-04-26 06:41 | 17.10456 | 84.47784 | 30231 ft | 453 kts | 58° |
| 2026-04-26 06:41 | 17.12083 | 84.50613 | 29893 ft | 455 kts | 58° |
| 2026-04-26 06:42 | 17.15308 | 84.56219 | 30443 ft | 444 kts | 58° |
| 2026-04-26 06:42 | 17.16891 | 84.58969 | 30993 ft | 440 kts | 58° |
| 2026-04-26 06:42 | 17.18459 | 84.61697 | 31434 ft | 432 kts | 58° |
| 2026-04-26 06:42 | 17.19993 | 84.64368 | 31305 ft | 430 kts | 57° |
| 2026-04-26 06:43 | 17.21555 | 84.67084 | 30618 ft | 442 kts | 58° |
| 2026-04-26 06:43 | 17.23158 | 84.69878 | 29811 ft | 453 kts | 58° |
| 2026-04-26 06:43 | 17.24792 | 84.72731 | 29318 ft | 458 kts | 58° |
| 2026-04-26 06:43 | 17.26425 | 84.75574 | 29587 ft | 451 kts | 58° |
| 2026-04-26 06:44 | 17.28015 | 84.78347 | 30303 ft | 437 kts | 58° |
| 2026-04-26 06:44 | 17.29553 | 84.81032 | 30868 ft | 434 kts | 58° |
| 2026-04-26 06:44 | 17.31120 | 84.83766 | 31170 ft | 443 kts | 58° |
| 2026-04-26 06:44 | 17.32725 | 84.86566 | 31393 ft | 454 kts | 58° |
| 2026-04-26 06:45 | 17.34342 | 84.89394 | 31712 ft | 444 kts | 58° |
| 2026-04-26 06:45 | 17.35899 | 84.92118 | 31655 ft | 433 kts | 57° |
| 2026-04-26 06:45 | 17.36953 | 84.93956 | 31233 ft | 437 kts | 57° |
| 2026-04-26 06:45 | 17.39062 | 84.97643 | 30077 ft | 453 kts | 58° |
| 2026-04-26 06:46 | 17.40137 | 84.99527 | 29555 ft | 459 kts | 58° |
| 2026-04-26 06:46 | 17.41781 | 85.02408 | 29366 ft | 458 kts | 58° |
| 2026-04-26 06:46 | 17.43397 | 85.05236 | 29886 ft | 445 kts | 58° |
| 2026-04-26 06:46 | 17.44966 | 85.07983 | 30510 ft | 435 kts | 58° |
| 2026-04-26 06:47 | 17.46525 | 85.10713 | 30894 ft | 438 kts | 58° |
| 2026-04-26 06:47 | 17.48107 | 85.13485 | 31125 ft | 449 kts | 57° |
| 2026-04-26 06:47 | 17.49282 | 85.15548 | 31324 ft | 456 kts | 58° |
| 2026-04-26 06:47 | 17.50877 | 85.18351 | 31716 ft | 444 kts | 58° |
| 2026-04-26 06:48 | 17.52446 | 85.21105 | 31727 ft | 440 kts | 57° |
| 2026-04-26 06:48 | 17.54029 | 85.23878 | 31310 ft | 447 kts | 57° |
| 2026-04-26 06:48 | 17.55618 | 85.26673 | 30705 ft | 451 kts | 58° |
| 2026-04-26 06:48 | 17.57230 | 85.29509 | 30137 ft | 455 kts | 58° |
| 2026-04-26 06:49 | 17.58860 | 85.32372 | 29870 ft | 456 kts | 58° |
| 2026-04-26 06:49 | 17.60480 | 85.35224 | 30040 ft | 452 kts | 58° |
| 2026-04-26 06:49 | 17.62059 | 85.38003 | 30506 ft | 445 kts | 57° |
| 2026-04-26 06:49 | 17.63632 | 85.40771 | 31082 ft | 442 kts | 57° |
| 2026-04-26 06:50 | 17.65188 | 85.43511 | 31462 ft | 430 kts | 57° |
| 2026-04-26 06:50 | 17.66721 | 85.46211 | 31200 ft | 435 kts | 57° |
| 2026-04-26 06:50 | 17.68290 | 85.48974 | 30484 ft | 446 kts | 57° |
| 2026-04-26 06:50 | 17.69890 | 85.51799 | 29747 ft | 457 kts | 58° |
| 2026-04-26 06:51 | 17.71526 | 85.54686 | 29441 ft | 460 kts | 58° |
| 2026-04-26 06:51 | 17.74722 | 85.60331 | 30638 ft | 437 kts | 57° |
| 2026-04-26 06:51 | 17.76275 | 85.63071 | 31141 ft | 439 kts | 57° |
| 2026-04-26 06:52 | 17.77853 | 85.65856 | 31429 ft | 448 kts | 57° |
| 2026-04-26 06:52 | 17.79453 | 85.68688 | 31640 ft | 453 kts | 57° |
| 2026-04-26 06:52 | 17.81034 | 85.71491 | 31702 ft | 439 kts | 57° |
| 2026-04-26 06:52 | 17.82590 | 85.74238 | 31227 ft | 440 kts | 57° |
| 2026-04-26 06:53 | 17.84168 | 85.77026 | 30418 ft | 450 kts | 58° |
| 2026-04-26 06:53 | 17.85780 | 85.79888 | 29672 ft | 458 kts | 57° |
| 2026-04-26 06:53 | 17.87386 | 85.82736 | 29440 ft | 458 kts | 57° |
| 2026-04-26 06:53 | 17.88992 | 85.85583 | 29884 ft | 447 kts | 57° |
| 2026-04-26 06:54 | 17.90558 | 85.88357 | 30508 ft | 436 kts | 57° |
| 2026-04-26 06:54 | 17.92105 | 85.91100 | 30930 ft | 438 kts | 57° |
| 2026-04-26 06:54 | 17.93663 | 85.93864 | 31134 ft | 449 kts | 57° |
| 2026-04-26 06:54 | 17.95280 | 85.96737 | 31404 ft | 458 kts | 57° |
| 2026-04-26 06:55 | 17.96876 | 85.99578 | 31764 ft | 443 kts | 57° |
| 2026-04-26 06:55 | 17.98442 | 86.02356 | 31706 ft | 443 kts | 57° |
| 2026-04-26 06:55 | 18.00025 | 86.05166 | 31225 ft | 449 kts | 57° |
| 2026-04-26 06:55 | 18.01623 | 86.08014 | 30621 ft | 453 kts | 57° |
| 2026-04-26 06:56 | 18.03211 | 86.10838 | 30113 ft | 456 kts | 57° |
| 2026-04-26 06:56 | 18.04821 | 86.13706 | 29922 ft | 456 kts | 57° |
| 2026-04-26 06:56 | 18.06429 | 86.16571 | 30134 ft | 451 kts | 57° |
| 2026-04-26 06:56 | 18.08008 | 86.19385 | 30625 ft | 444 kts | 57° |
| 2026-04-26 06:57 | 18.09577 | 86.22179 | 31152 ft | 443 kts | 57° |
| 2026-04-26 06:57 | 18.11130 | 86.24951 | 31487 ft | 432 kts | 57° |
| 2026-04-26 06:57 | 18.12654 | 86.27670 | 31209 ft | 436 kts | 57° |
| 2026-04-26 06:57 | 18.14219 | 86.30457 | 30488 ft | 447 kts | 57° |
| 2026-04-26 06:58 | 18.15808 | 86.33300 | 29743 ft | 456 kts | 57° |
| 2026-04-26 06:58 | 18.17404 | 86.36154 | 29415 ft | 458 kts | 57° |
| 2026-04-26 06:58 | 18.19012 | 86.39026 | 29792 ft | 450 kts | 57° |
| 2026-04-26 06:58 | 18.20572 | 86.41817 | 30480 ft | 437 kts | 57° |
| 2026-04-26 06:59 | 18.22112 | 86.44570 | 30986 ft | 437 kts | 57° |
| 2026-04-26 06:59 | 18.23675 | 86.47364 | 31225 ft | 448 kts | 57° |
| 2026-04-26 06:59 | 18.25276 | 86.50233 | 31480 ft | 457 kts | 57° |
| 2026-04-26 06:59 | 18.26855 | 86.53068 | 31757 ft | 440 kts | 57° |
| 2026-04-26 07:00 | 18.28393 | 86.55821 | 31504 ft | 436 kts | 57° |
| 2026-04-26 07:00 | 18.29955 | 86.58613 | 30744 ft | 446 kts | 57° |
| 2026-04-26 07:00 | 18.31521 | 86.61427 | 29926 ft | 457 kts | 57° |
| 2026-04-26 07:00 | 18.33134 | 86.64325 | 29468 ft | 460 kts | 57° |
| 2026-04-26 07:01 | 18.34741 | 86.67212 | 29736 ft | 451 kts | 57° |
| 2026-04-26 07:01 | 18.36303 | 86.70016 | 30359 ft | 438 kts | 57° |
| 2026-04-26 07:01 | 18.37847 | 86.72786 | 30472 ft | 445 kts | 57° |
| 2026-04-26 07:01 | 18.39457 | 86.75674 | 30355 ft | 466 kts | 57° |
| 2026-04-26 07:02 | 18.41098 | 86.78637 | 30914 ft | 465 kts | 57° |
| 2026-04-26 07:02 | 18.42685 | 86.81499 | 31556 ft | 443 kts | 57° |
| 2026-04-26 07:02 | 18.45796 | 86.87085 | 31075 ft | 448 kts | 57° |
| 2026-04-26 07:03 | 18.47371 | 86.89931 | 30523 ft | 450 kts | 57° |
| 2026-04-26 07:03 | 18.48954 | 86.92783 | 30064 ft | 453 kts | 57° |
| 2026-04-26 07:03 | 18.50535 | 86.95635 | 29804 ft | 446 kts | 57° |
| 2026-04-26 07:03 | 18.52075 | 86.98414 | 29662 ft | 436 kts | 57° |
| 2026-04-26 07:04 | 18.53595 | 87.01157 | 29366 ft | 430 kts | 57° |
| 2026-04-26 07:04 | 18.55100 | 87.03872 | 28830 ft | 430 kts | 57° |
| 2026-04-26 07:04 | 18.56617 | 87.06613 | 28212 ft | 434 kts | 57° |
| 2026-04-26 07:04 | 18.58149 | 87.09383 | 27782 ft | 438 kts | 57° |
| 2026-04-26 07:05 | 18.59685 | 87.12162 | 27834 ft | 438 kts | 57° |
| 2026-04-26 07:05 | 18.61204 | 87.14910 | 28356 ft | 430 kts | 57° |
| 2026-04-26 07:05 | 18.62699 | 87.17614 | 29059 ft | 425 kts | 57° |
| 2026-04-26 07:05 | 18.64195 | 87.20320 | 29696 ft | 427 kts | 57° |
| 2026-04-26 07:06 | 18.65680 | 87.23010 | 30106 ft | 434 kts | 57° |
| 2026-04-26 07:06 | 18.67211 | 87.25788 | 30419 ft | 443 kts | 57° |
| 2026-04-26 07:06 | 18.68774 | 87.28621 | 30799 ft | 450 kts | 57° |
| 2026-04-26 07:06 | 18.70349 | 87.31479 | 31333 ft | 446 kts | 57° |
| 2026-04-26 07:07 | 18.71868 | 87.34243 | 31569 ft | 430 kts | 57° |
| 2026-04-26 07:07 | 18.73390 | 87.36995 | 31096 ft | 440 kts | 57° |
| 2026-04-26 07:07 | 18.74955 | 87.39834 | 30275 ft | 451 kts | 57° |
| 2026-04-26 07:07 | 18.76544 | 87.42728 | 29611 ft | 459 kts | 57° |
| 2026-04-26 07:08 | 18.78145 | 87.45641 | 29494 ft | 457 kts | 57° |
| 2026-04-26 07:08 | 18.79729 | 87.48521 | 30006 ft | 445 kts | 57° |
| 2026-04-26 07:08 | 18.81262 | 87.51311 | 30624 ft | 436 kts | 57° |
| 2026-04-26 07:08 | 18.82774 | 87.54059 | 30990 ft | 441 kts | 57° |
| 2026-04-26 07:09 | 18.84352 | 87.56930 | 31212 ft | 453 kts | 57° |
| 2026-04-26 07:09 | 18.85922 | 87.59796 | 31515 ft | 457 kts | 57° |
| 2026-04-26 07:09 | 18.87479 | 87.62642 | 31758 ft | 438 kts | 57° |
| 2026-04-26 07:09 | 18.89002 | 87.65411 | 31388 ft | 439 kts | 57° |
| 2026-04-26 07:10 | 18.93750 | 87.74083 | 29515 ft | 459 kts | 57° |
| 2026-04-26 07:11 | 18.96872 | 87.79788 | 30513 ft | 437 kts | 57° |
| 2026-04-26 07:11 | 18.98375 | 87.82532 | 30903 ft | 440 kts | 57° |
| 2026-04-26 07:11 | 18.99925 | 87.85366 | 31104 ft | 451 kts | 57° |
| 2026-04-26 07:11 | 19.01510 | 87.88274 | 31401 ft | 460 kts | 57° |
| 2026-04-26 07:12 | 19.03077 | 87.91151 | 31756 ft | 444 kts | 57° |
| 2026-04-26 07:12 | 19.04621 | 87.93973 | 31645 ft | 444 kts | 57° |
| 2026-04-26 07:12 | 19.06182 | 87.96829 | 31165 ft | 451 kts | 57° |
| 2026-04-26 07:12 | 19.07750 | 87.99711 | 30567 ft | 454 kts | 57° |
| 2026-04-26 07:13 | 19.09332 | 88.02614 | 30115 ft | 456 kts | 57° |
| 2026-04-26 07:13 | 19.10917 | 88.05516 | 29969 ft | 455 kts | 57° |
| 2026-04-26 07:13 | 19.12487 | 88.08402 | 30213 ft | 450 kts | 57° |
| 2026-04-26 07:13 | 19.14035 | 88.11261 | 30680 ft | 445 kts | 57° |
| 2026-04-26 07:14 | 19.15582 | 88.14097 | 31165 ft | 446 kts | 57° |
| 2026-04-26 07:14 | 19.17122 | 88.16928 | 31501 ft | 435 kts | 57° |
| 2026-04-26 07:14 | 19.18627 | 88.19699 | 31254 ft | 438 kts | 57° |
| 2026-04-26 07:14 | 19.20163 | 88.22521 | 30520 ft | 439 kts | 57° |
| 2026-04-26 07:15 | 19.21688 | 88.25333 | 28990 ft | 451 kts | 57° |
| 2026-04-26 07:15 | 19.23274 | 88.28252 | 27882 ft | 470 kts | 57° |
| 2026-04-26 07:15 | 19.24885 | 88.31233 | 28115 ft | 456 kts | 57° |
| 2026-04-26 07:15 | 19.26425 | 88.34077 | 29023 ft | 438 kts | 57° |
| 2026-04-26 07:16 | 19.27937 | 88.36855 | 29596 ft | 432 kts | 57° |
| 2026-04-26 07:16 | 19.29433 | 88.39616 | 30067 ft | 435 kts | 57° |
| 2026-04-26 07:16 | 19.30956 | 88.42431 | 30407 ft | 443 kts | 57° |
| 2026-04-26 07:16 | 19.32499 | 88.45285 | 30797 ft | 449 kts | 57° |
| 2026-04-26 07:17 | 19.34050 | 88.48154 | 31316 ft | 448 kts | 57° |
| 2026-04-26 07:17 | 19.35560 | 88.50949 | 31664 ft | 438 kts | 57° |
| 2026-04-26 07:17 | 19.37088 | 88.53770 | 31500 ft | 447 kts | 57° |
| 2026-04-26 07:17 | 19.38645 | 88.56652 | 31078 ft | 453 kts | 57° |
| 2026-04-26 07:18 | 19.40209 | 88.59556 | 30607 ft | 452 kts | 57° |
| 2026-04-26 07:18 | 19.41768 | 88.62444 | 30198 ft | 453 kts | 57° |
| 2026-04-26 07:18 | 19.43336 | 88.65350 | 30004 ft | 455 kts | 57° |
| 2026-04-26 07:18 | 19.44904 | 88.68261 | 30135 ft | 454 kts | 57° |
| 2026-04-26 07:19 | 19.46463 | 88.71154 | 30583 ft | 449 kts | 57° |
| 2026-04-26 07:19 | 19.48004 | 88.74015 | 31173 ft | 444 kts | 57° |
| 2026-04-26 07:19 | 19.49505 | 88.76807 | 31496 ft | 431 kts | 57° |
| 2026-04-26 07:19 | 19.51013 | 88.79599 | 31174 ft | 443 kts | 57° |
| 2026-04-26 07:20 | 19.52537 | 88.82433 | 30548 ft | 452 kts | 57° |
| 2026-04-26 07:20 | 19.54099 | 88.85346 | 30010 ft | 460 kts | 57° |
| 2026-04-26 07:20 | 19.55690 | 88.88310 | 29901 ft | 462 kts | 57° |
| 2026-04-26 07:20 | 19.57268 | 88.91250 | 30355 ft | 454 kts | 57° |
| 2026-04-26 07:21 | 19.58811 | 88.94124 | 31095 ft | 439 kts | 57° |
| 2026-04-26 07:21 | 19.60291 | 88.96882 | 31481 ft | 430 kts | 57° |
| 2026-04-26 07:21 | 19.61797 | 88.99679 | 31222 ft | 445 kts | 57° |
| 2026-04-26 07:21 | 19.63344 | 89.02571 | 30702 ft | 453 kts | 57° |
| 2026-04-26 07:22 | 19.64906 | 89.05495 | 30257 ft | 458 kts | 57° |
| 2026-04-26 07:22 | 19.66489 | 89.08448 | 30126 ft | 461 kts | 57° |
| 2026-04-26 07:22 | 19.68046 | 89.11360 | 30440 ft | 456 kts | 57° |
| 2026-04-26 07:22 | 19.69596 | 89.14258 | 31083 ft | 447 kts | 57° |
| 2026-04-26 07:23 | 19.71098 | 89.17070 | 31534 ft | 433 kts | 57° |
| 2026-04-26 07:23 | 19.72605 | 89.19878 | 31427 ft | 443 kts | 57° |
| 2026-04-26 07:23 | 19.74151 | 89.22772 | 30975 ft | 454 kts | 57° |
| 2026-04-26 07:23 | 19.75703 | 89.25692 | 30520 ft | 454 kts | 57° |
| 2026-04-26 07:24 | 19.77262 | 89.28611 | 30159 ft | 455 kts | 57° |
| 2026-04-26 07:24 | 19.78826 | 89.31541 | 30056 ft | 456 kts | 57° |
| 2026-04-26 07:24 | 19.80384 | 89.34466 | 30297 ft | 454 kts | 57° |
| 2026-04-26 07:24 | 19.81932 | 89.37372 | 30809 ft | 449 kts | 57° |
| 2026-04-26 07:25 | 19.83443 | 89.40209 | 31369 ft | 439 kts | 57° |
| 2026-04-26 07:25 | 19.84934 | 89.43012 | 31498 ft | 437 kts | 57° |
| 2026-04-26 07:25 | 19.86458 | 89.45864 | 31110 ft | 450 kts | 57° |
| 2026-04-26 07:25 | 19.88003 | 89.48778 | 30553 ft | 454 kts | 57° |
| 2026-04-26 07:26 | 19.89562 | 89.51717 | 30128 ft | 458 kts | 57° |
| 2026-04-26 07:26 | 19.92685 | 89.57598 | 30371 ft | 454 kts | 57° |
| 2026-04-26 07:26 | 19.94245 | 89.60537 | 30989 ft | 447 kts | 57° |
| 2026-04-26 07:27 | 19.95725 | 89.63329 | 31458 ft | 434 kts | 56° |
| 2026-04-26 07:27 | 19.97243 | 89.66183 | 31347 ft | 443 kts | 57° |
| 2026-04-26 07:27 | 19.98754 | 89.69032 | 30877 ft | 453 kts | 57° |
| 2026-04-26 07:27 | 20.00313 | 89.71987 | 30373 ft | 456 kts | 57° |
| 2026-04-26 07:28 | 20.01875 | 89.74937 | 30079 ft | 461 kts | 57° |
| 2026-04-26 07:28 | 20.03451 | 89.77914 | 30208 ft | 459 kts | 57° |
| 2026-04-26 07:28 | 20.05005 | 89.80857 | 30733 ft | 452 kts | 57° |
| 2026-04-26 07:28 | 20.06525 | 89.83733 | 31355 ft | 438 kts | 56° |
| 2026-04-26 07:29 | 20.08007 | 89.86535 | 31513 ft | 438 kts | 56° |
| 2026-04-26 07:29 | 20.09531 | 89.89408 | 31138 ft | 452 kts | 57° |
| 2026-04-26 07:29 | 20.11071 | 89.92339 | 30644 ft | 456 kts | 57° |
| 2026-04-26 07:29 | 20.12623 | 89.95286 | 30240 ft | 458 kts | 57° |
| 2026-04-26 07:30 | 20.14190 | 89.98253 | 30103 ft | 460 kts | 57° |
| 2026-04-26 07:30 | 20.15747 | 90.01213 | 30345 ft | 456 kts | 57° |
| 2026-04-26 07:30 | 20.17290 | 90.04141 | 30882 ft | 451 kts | 57° |
| 2026-04-26 07:30 | 20.18789 | 90.06990 | 31415 ft | 439 kts | 56° |
| 2026-04-26 07:31 | 20.20280 | 90.09819 | 31477 ft | 441 kts | 56° |
| 2026-04-26 07:31 | 20.21805 | 90.12711 | 31082 ft | 453 kts | 57° |
| 2026-04-26 07:31 | 20.23347 | 90.15655 | 30571 ft | 456 kts | 57° |
| 2026-04-26 07:31 | 20.24901 | 90.18616 | 30166 ft | 458 kts | 57° |
| 2026-04-26 07:32 | 20.26459 | 90.21579 | 30047 ft | 460 kts | 57° |
| 2026-04-26 07:32 | 20.28016 | 90.24551 | 30319 ft | 456 kts | 57° |
| 2026-04-26 07:32 | 20.29555 | 90.27485 | 30873 ft | 450 kts | 56° |
| 2026-04-26 07:32 | 20.31066 | 90.30366 | 31408 ft | 439 kts | 56° |
| 2026-04-26 07:33 | 20.32555 | 90.33205 | 31449 ft | 441 kts | 56° |
| 2026-04-26 07:33 | 20.34056 | 90.36060 | 31030 ft | 453 kts | 56° |
| 2026-04-26 07:33 | 20.35593 | 90.39011 | 30523 ft | 457 kts | 57° |
| 2026-04-26 07:33 | 20.37152 | 90.41990 | 30126 ft | 460 kts | 57° |
| 2026-04-26 07:34 | 20.38714 | 90.44976 | 30098 ft | 461 kts | 57° |
| 2026-04-26 07:34 | 20.40265 | 90.47948 | 30474 ft | 456 kts | 57° |
| 2026-04-26 07:34 | 20.41799 | 90.50885 | 31070 ft | 450 kts | 56° |
| 2026-04-26 07:34 | 20.43290 | 90.53741 | 31493 ft | 437 kts | 56° |
| 2026-04-26 07:35 | 20.44279 | 90.55629 | 31464 ft | 442 kts | 56° |
| 2026-04-26 07:35 | 20.46306 | 90.59511 | 30884 ft | 457 kts | 57° |
| 2026-04-26 07:35 | 20.47350 | 90.61524 | 30549 ft | 458 kts | 57° |
| 2026-04-26 07:35 | 20.48901 | 90.64501 | 30169 ft | 461 kts | 57° |
| 2026-04-26 07:36 | 20.50445 | 90.67461 | 30101 ft | 462 kts | 57° |
| 2026-04-26 07:36 | 20.52514 | 90.71442 | 30594 ft | 455 kts | 56° |
| 2026-04-26 07:36 | 20.54040 | 90.74372 | 31209 ft | 448 kts | 56° |
| 2026-04-26 07:36 | 20.55029 | 90.76280 | 31488 ft | 439 kts | 56° |
| 2026-04-26 07:37 | 20.56540 | 90.79175 | 31412 ft | 446 kts | 56° |
| 2026-04-26 07:37 | 20.58053 | 90.82081 | 30969 ft | 457 kts | 57° |
| 2026-04-26 07:37 | 20.59591 | 90.85062 | 30488 ft | 459 kts | 56° |
| 2026-04-26 07:37 | 20.61139 | 90.88043 | 30143 ft | 461 kts | 56° |
| 2026-04-26 07:38 | 20.62698 | 90.91044 | 30125 ft | 462 kts | 57° |
| 2026-04-26 07:38 | 20.64246 | 90.94038 | 30488 ft | 457 kts | 56° |
| 2026-04-26 07:38 | 20.65777 | 90.96992 | 31053 ft | 453 kts | 56° |
| 2026-04-26 07:38 | 20.67278 | 90.99892 | 31501 ft | 440 kts | 56° |
| 2026-04-26 07:39 | 20.68770 | 91.02765 | 31398 ft | 448 kts | 56° |
| 2026-04-26 07:39 | 20.70301 | 91.05719 | 30939 ft | 458 kts | 56° |
| 2026-04-26 07:39 | 20.71841 | 91.08713 | 30444 ft | 460 kts | 56° |
| 2026-04-26 07:39 | 20.73398 | 91.11723 | 30106 ft | 463 kts | 56° |
| 2026-04-26 07:40 | 20.74955 | 91.14738 | 30106 ft | 464 kts | 57° |
| 2026-04-26 07:40 | 20.76500 | 91.17734 | 30480 ft | 458 kts | 56° |
| 2026-04-26 07:40 | 20.78033 | 91.20707 | 31074 ft | 453 kts | 56° |
| 2026-04-26 07:40 | 20.79527 | 91.23606 | 31498 ft | 441 kts | 56° |
| 2026-04-26 07:41 | 20.81021 | 91.26492 | 31345 ft | 450 kts | 56° |
| 2026-04-26 07:41 | 20.82535 | 91.29429 | 30899 ft | 460 kts | 56° |
| 2026-04-26 07:41 | 20.84074 | 91.32432 | 30409 ft | 462 kts | 56° |
| 2026-04-26 07:41 | 20.85631 | 91.35457 | 30115 ft | 466 kts | 56° |
| 2026-04-26 07:42 | 20.87194 | 91.38496 | 30190 ft | 465 kts | 57° |
| 2026-04-26 07:42 | 20.88741 | 91.41512 | 30648 ft | 459 kts | 56° |
| 2026-04-26 07:42 | 20.90270 | 91.44488 | 31259 ft | 449 kts | 56° |
| 2026-04-26 07:42 | 20.91756 | 91.47382 | 31529 ft | 443 kts | 56° |
| 2026-04-26 07:43 | 20.93267 | 91.50307 | 31249 ft | 456 kts | 56° |
| 2026-04-26 07:43 | 20.94805 | 91.53317 | 30772 ft | 462 kts | 56° |
| 2026-04-26 07:43 | 20.96350 | 91.56342 | 30331 ft | 464 kts | 56° |
| 2026-04-26 07:43 | 20.97915 | 91.59389 | 30105 ft | 467 kts | 56° |
| 2026-04-26 07:44 | 20.99458 | 91.62407 | 30241 ft | 466 kts | 56° |
| 2026-04-26 07:44 | 21.01005 | 91.65435 | 30722 ft | 460 kts | 56° |
| 2026-04-26 07:44 | 21.02528 | 91.68410 | 31326 ft | 449 kts | 56° |
| 2026-04-26 07:44 | 21.04014 | 91.71318 | 31532 ft | 445 kts | 56° |
| 2026-04-26 07:45 | 21.05527 | 91.74261 | 31220 ft | 459 kts | 56° |
| 2026-04-26 07:45 | 21.07066 | 91.77289 | 30731 ft | 464 kts | 56° |
| 2026-04-26 07:45 | 21.08611 | 91.80323 | 30295 ft | 465 kts | 56° |
| 2026-04-26 07:45 | 21.10167 | 91.83368 | 30085 ft | 468 kts | 56° |
| 2026-04-26 07:46 | 21.11725 | 91.86428 | 30221 ft | 467 kts | 56° |
| 2026-04-26 07:46 | 21.13271 | 91.89467 | 30687 ft | 461 kts | 56° |
| 2026-04-26 07:46 | 21.14800 | 91.92467 | 31307 ft | 451 kts | 56° |
| 2026-04-26 07:46 | 21.16286 | 91.95386 | 31532 ft | 446 kts | 56° |
| 2026-04-26 07:47 | 21.17783 | 91.98311 | 31238 ft | 459 kts | 56° |
| 2026-04-26 07:47 | 21.19321 | 92.01348 | 30748 ft | 465 kts | 56° |
| 2026-04-26 07:47 | 21.20865 | 92.04395 | 30295 ft | 467 kts | 56° |
| 2026-04-26 07:47 | 21.22426 | 92.07466 | 30081 ft | 470 kts | 56° |
| 2026-04-26 07:48 | 21.23993 | 92.10558 | 30237 ft | 469 kts | 56° |
| 2026-04-26 07:48 | 21.25540 | 92.13611 | 30745 ft | 463 kts | 56° |
| 2026-04-26 07:48 | 21.27060 | 92.16609 | 31353 ft | 449 kts | 56° |
| 2026-04-26 07:48 | 21.28527 | 92.19500 | 31530 ft | 448 kts | 55° |
| 2026-04-26 07:49 | 21.30044 | 92.22478 | 31199 ft | 462 kts | 56° |
| 2026-04-26 07:49 | 21.31582 | 92.25532 | 30721 ft | 467 kts | 56° |
| 2026-04-26 07:49 | 21.33131 | 92.28602 | 30288 ft | 468 kts | 56° |
| 2026-04-26 07:50 | 21.37797 | 92.37840 | 30749 ft | 464 kts | 56° |
| 2026-04-26 07:50 | 21.39320 | 92.40857 | 31357 ft | 451 kts | 56° |
| 2026-04-26 07:50 | 21.40803 | 92.43796 | 31557 ft | 449 kts | 55° |
| 2026-04-26 07:51 | 21.42322 | 92.46786 | 31221 ft | 462 kts | 56° |
| 2026-04-26 07:51 | 21.43857 | 92.49848 | 30733 ft | 468 kts | 56° |
| 2026-04-26 07:51 | 21.45403 | 92.52934 | 30290 ft | 470 kts | 56° |
| 2026-04-26 07:51 | 21.46940 | 92.55982 | 30063 ft | 471 kts | 56° |
| 2026-04-26 07:52 | 21.48498 | 92.59073 | 30201 ft | 470 kts | 56° |
| 2026-04-26 07:52 | 21.50043 | 92.62155 | 30630 ft | 467 kts | 56° |
| 2026-04-26 07:52 | 21.51578 | 92.65216 | 31233 ft | 459 kts | 55° |
| 2026-04-26 07:52 | 21.53072 | 92.68175 | 31575 ft | 449 kts | 55° |
| 2026-04-26 07:53 | 21.54574 | 92.71165 | 31340 ft | 462 kts | 55° |
| 2026-04-26 07:53 | 21.56115 | 92.74244 | 30870 ft | 470 kts | 56° |
| 2026-04-26 07:53 | 21.57667 | 92.77351 | 30398 ft | 471 kts | 56° |
| 2026-04-26 07:53 | 21.59225 | 92.80455 | 30079 ft | 474 kts | 56° |
| 2026-04-26 07:54 | 21.62354 | 92.86713 | 30515 ft | 471 kts | 56° |
| 2026-04-26 07:54 | 21.63872 | 92.89749 | 31154 ft | 461 kts | 56° |
| 2026-04-26 07:54 | 21.65366 | 92.92743 | 31541 ft | 453 kts | 55° |
| 2026-04-26 07:55 | 21.66877 | 92.95750 | 31359 ft | 462 kts | 56° |
| 2026-04-26 07:55 | 21.68416 | 92.98833 | 30921 ft | 471 kts | 56° |
| 2026-04-26 07:55 | 21.69965 | 93.01956 | 30470 ft | 472 kts | 56° |
| 2026-04-26 07:55 | 21.71524 | 93.05073 | 30119 ft | 476 kts | 56° |
| 2026-04-26 07:56 | 21.74644 | 93.11344 | 30461 ft | 477 kts | 55° |
| 2026-04-26 07:56 | 21.76202 | 93.14478 | 31237 ft | 462 kts | 56° |
| 2026-04-26 07:56 | 21.77689 | 93.17479 | 31644 ft | 451 kts | 54° |
| 2026-04-26 07:57 | 21.79193 | 93.20459 | 31406 ft | 465 kts | 55° |
| 2026-04-26 07:57 | 21.80228 | 93.22549 | 31077 ft | 473 kts | 56° |